sensor_id;sensor_type;location;lat;lon;timestamp;P1;durP1;ratioP1;P2;durP2;ratioP2
11098;SDS011;12223;42.650;23.364;2023-02-15T00:01:25;36.93;;;27.67;;
11098;SDS011;12223;42.650;23.364;2023-02-15T00:03:52;38.53;;;32.77;;
11098;SDS011;12223;42.650;23.364;2023-02-15T00:06:19;37.87;;;28.87;;
11098;SDS011;12223;42.650;23.364;2023-02-15T00:08:46;48.50;;;43.23;;
11098;SDS011;12223;42.650;23.364;2023-02-15T00:11:13;47.63;;;42.53;;
11098;SDS011;12223;42.650;23.364;2023-02-15T00:13:41;45.43;;;34.07;;
11098;SDS011;12223;42.650;23.364;2023-02-15T00:16:09;56.73;;;51.07;;
11098;SDS011;12223;42.650;23.364;2023-02-15T00:18:39;61.00;;;54.80;;
11098;SDS011;12223;42.650;23.364;2023-02-15T00:21:06;47.90;;;42.57;;
11098;SDS011;12223;42.650;23.364;2023-02-15T00:23:35;41.53;;;31.87;;
11098;SDS011;12223;42.650;23.364;2023-02-15T00:26:05;37.80;;;25.30;;
11098;SDS011;12223;42.650;23.364;2023-02-15T00:28:32;36.10;;;26.53;;
11098;SDS011;12223;42.650;23.364;2023-02-15T00:31:03;40.47;;;26.70;;
11098;SDS011;12223;42.650;23.364;2023-02-15T00:33:31;49.03;;;43.27;;
11098;SDS011;12223;42.650;23.364;2023-02-15T00:35:59;79.10;;;73.30;;
11098;SDS011;12223;42.650;23.364;2023-02-15T00:38:27;44.57;;;39.90;;
11098;SDS011;12223;42.650;23.364;2023-02-15T00:40:55;46.73;;;42.07;;
11098;SDS011;12223;42.650;23.364;2023-02-15T00:43:23;49.07;;;44.27;;
11098;SDS011;12223;42.650;23.364;2023-02-15T00:45:51;38.30;;;30.00;;
11098;SDS011;12223;42.650;23.364;2023-02-15T00:48:18;43.73;;;37.73;;
11098;SDS011;12223;42.650;23.364;2023-02-15T00:50:46;42.50;;;34.97;;
11098;SDS011;12223;42.650;23.364;2023-02-15T00:53:14;47.57;;;42.67;;
11098;SDS011;12223;42.650;23.364;2023-02-15T00:55:41;44.00;;;36.70;;
11098;SDS011;12223;42.650;23.364;2023-02-15T00:58:08;39.77;;;34.80;;
11098;SDS011;12223;42.650;23.364;2023-02-15T01:00:36;36.47;;;29.57;;
11098;SDS011;12223;42.650;23.364;2023-02-15T01:03:04;41.13;;;35.23;;
11098;SDS011;12223;42.650;23.364;2023-02-15T01:05:31;42.13;;;37.20;;
11098;SDS011;12223;42.650;23.364;2023-02-15T01:07:58;39.07;;;33.70;;
11098;SDS011;12223;42.650;23.364;2023-02-15T01:10:27;45.63;;;40.93;;
11098;SDS011;12223;42.650;23.364;2023-02-15T01:12:54;47.50;;;42.53;;
11098;SDS011;12223;42.650;23.364;2023-02-15T01:15:23;75.10;;;69.50;;
11098;SDS011;12223;42.650;23.364;2023-02-15T01:17:50;47.60;;;42.77;;
11098;SDS011;12223;42.650;23.364;2023-02-15T01:20:18;38.53;;;33.10;;
11098;SDS011;12223;42.650;23.364;2023-02-15T01:22:45;33.97;;;25.40;;
11098;SDS011;12223;42.650;23.364;2023-02-15T01:25:14;38.50;;;30.43;;
11098;SDS011;12223;42.650;23.364;2023-02-15T01:27:43;46.00;;;41.30;;
11098;SDS011;12223;42.650;23.364;2023-02-15T01:30:11;42.70;;;31.97;;
11098;SDS011;12223;42.650;23.364;2023-02-15T01:32:38;45.27;;;40.53;;
11098;SDS011;12223;42.650;23.364;2023-02-15T01:35:05;45.00;;;40.10;;
11098;SDS011;12223;42.650;23.364;2023-02-15T01:37:33;46.23;;;41.60;;
11098;SDS011;12223;42.650;23.364;2023-02-15T01:40:00;36.30;;;31.00;;
11098;SDS011;12223;42.650;23.364;2023-02-15T01:42:28;41.50;;;32.40;;
11098;SDS011;12223;42.650;23.364;2023-02-15T01:44:57;36.83;;;26.00;;
11098;SDS011;12223;42.650;23.364;2023-02-15T01:47:26;35.87;;;25.63;;
11098;SDS011;12223;42.650;23.364;2023-02-15T01:50:02;37.67;;;26.43;;
11098;SDS011;12223;42.650;23.364;2023-02-15T01:52:34;37.80;;;26.63;;
11098;SDS011;12223;42.650;23.364;2023-02-15T01:55:05;34.20;;;24.93;;
11098;SDS011;12223;42.650;23.364;2023-02-15T01:57:33;57.80;;;52.50;;
11098;SDS011;12223;42.650;23.364;2023-02-15T02:00:02;37.30;;;26.27;;
11098;SDS011;12223;42.650;23.364;2023-02-15T02:02:33;36.90;;;25.57;;
11098;SDS011;12223;42.650;23.364;2023-02-15T02:05:01;34.60;;;25.20;;
11098;SDS011;12223;42.650;23.364;2023-02-15T02:07:32;35.53;;;24.73;;
11098;SDS011;12223;42.650;23.364;2023-02-15T02:10:02;41.80;;;37.40;;
11098;SDS011;12223;42.650;23.364;2023-02-15T02:12:32;37.93;;;28.87;;
11098;SDS011;12223;42.650;23.364;2023-02-15T02:15:01;82.43;;;76.20;;
11098;SDS011;12223;42.650;23.364;2023-02-15T02:17:30;35.27;;;28.83;;
11098;SDS011;12223;42.650;23.364;2023-02-15T02:29:26;112.07;;;104.87;;
11098;SDS011;12223;42.650;23.364;2023-02-15T02:35:24;39.47;;;30.70;;
11098;SDS011;12223;42.650;23.364;2023-02-15T02:37:59;142.83;;;134.27;;
11098;SDS011;12223;42.650;23.364;2023-02-15T02:40:35;223.97;;;211.70;;
11098;SDS011;12223;42.650;23.364;2023-02-15T02:43:10;215.00;;;203.83;;
11098;SDS011;12223;42.650;23.364;2023-02-15T02:45:45;192.80;;;182.63;;
11098;SDS011;12223;42.650;23.364;2023-02-15T02:48:17;49.63;;;45.20;;
11098;SDS011;12223;42.650;23.364;2023-02-15T02:50:49;61.20;;;55.80;;
11098;SDS011;12223;42.650;23.364;2023-02-15T02:53:15;35.43;;;23.80;;
11098;SDS011;12223;42.650;23.364;2023-02-15T02:55:43;36.90;;;25.70;;
11098;SDS011;12223;42.650;23.364;2023-02-15T02:58:14;36.80;;;25.77;;
11098;SDS011;12223;42.650;23.364;2023-02-15T03:00:46;34.63;;;24.33;;
11098;SDS011;12223;42.650;23.364;2023-02-15T03:03:19;36.80;;;25.70;;
11098;SDS011;12223;42.650;23.364;2023-02-15T03:05:52;39.03;;;28.40;;
11098;SDS011;12223;42.650;23.364;2023-02-15T03:08:22;42.80;;;38.37;;
11098;SDS011;12223;42.650;23.364;2023-02-15T03:10:54;51.77;;;46.83;;
11098;SDS011;12223;42.650;23.364;2023-02-15T03:13:23;48.27;;;43.73;;
11098;SDS011;12223;42.650;23.364;2023-02-15T03:15:50;46.00;;;41.90;;
11098;SDS011;12223;42.650;23.364;2023-02-15T03:18:36;36.47;;;29.47;;
11098;SDS011;12223;42.650;23.364;2023-02-15T03:21:08;37.23;;;28.23;;
11098;SDS011;12223;42.650;23.364;2023-02-15T03:23:48;40.63;;;31.67;;
11098;SDS011;12223;42.650;23.364;2023-02-15T03:26:18;40.87;;;28.77;;
11098;SDS011;12223;42.650;23.364;2023-02-15T03:28:49;35.23;;;25.13;;
11098;SDS011;12223;42.650;23.364;2023-02-15T03:31:19;34.67;;;26.07;;
11098;SDS011;12223;42.650;23.364;2023-02-15T03:33:52;33.80;;;25.27;;
11098;SDS011;12223;42.650;23.364;2023-02-15T03:36:24;30.67;;;23.17;;
11098;SDS011;12223;42.650;23.364;2023-02-15T03:38:57;34.47;;;24.50;;
11098;SDS011;12223;42.650;23.364;2023-02-15T03:41:32;32.27;;;24.97;;
11098;SDS011;12223;42.650;23.364;2023-02-15T03:44:04;32.50;;;25.37;;
11098;SDS011;12223;42.650;23.364;2023-02-15T03:46:36;34.23;;;25.57;;
11098;SDS011;12223;42.650;23.364;2023-02-15T03:49:08;33.50;;;27.60;;
11098;SDS011;12223;42.650;23.364;2023-02-15T03:51:42;34.53;;;26.57;;
11098;SDS011;12223;42.650;23.364;2023-02-15T03:54:13;33.97;;;26.30;;
11098;SDS011;12223;42.650;23.364;2023-02-15T03:57:02;32.70;;;25.63;;
11098;SDS011;12223;42.650;23.364;2023-02-15T03:59:46;29.57;;;25.23;;
11098;SDS011;12223;42.650;23.364;2023-02-15T04:02:32;32.37;;;25.07;;
11098;SDS011;12223;42.650;23.364;2023-02-15T04:05:04;28.33;;;22.47;;
11098;SDS011;12223;42.650;23.364;2023-02-15T04:07:32;30.10;;;22.93;;
11098;SDS011;12223;42.650;23.364;2023-02-15T04:09:59;29.03;;;23.00;;
11098;SDS011;12223;42.650;23.364;2023-02-15T04:12:43;32.40;;;27.17;;
11098;SDS011;12223;42.650;23.364;2023-02-15T04:15:11;29.43;;;23.57;;
11098;SDS011;12223;42.650;23.364;2023-02-15T04:18:11;31.13;;;23.03;;
11098;SDS011;12223;42.650;23.364;2023-02-15T04:20:37;35.07;;;31.43;;
11098;SDS011;12223;42.650;23.364;2023-02-15T04:23:23;74.00;;;69.00;;
11098;SDS011;12223;42.650;23.364;2023-02-15T04:26:07;33.23;;;25.07;;
11098;SDS011;12223;42.650;23.364;2023-02-15T04:28:34;34.53;;;30.83;;
11098;SDS011;12223;42.650;23.364;2023-02-15T04:31:00;60.97;;;56.17;;
11098;SDS011;12223;42.650;23.364;2023-02-15T04:33:27;36.73;;;32.87;;
11098;SDS011;12223;42.650;23.364;2023-02-15T04:35:54;28.90;;;23.27;;
11098;SDS011;12223;42.650;23.364;2023-02-15T04:38:22;32.47;;;25.60;;
11098;SDS011;12223;42.650;23.364;2023-02-15T04:40:49;29.37;;;22.77;;
11098;SDS011;12223;42.650;23.364;2023-02-15T04:43:17;35.33;;;30.80;;
11098;SDS011;12223;42.650;23.364;2023-02-15T04:45:47;34.37;;;26.60;;
11098;SDS011;12223;42.650;23.364;2023-02-15T04:48:15;44.60;;;40.40;;
11098;SDS011;12223;42.650;23.364;2023-02-15T04:50:42;53.87;;;49.77;;
11098;SDS011;12223;42.650;23.364;2023-02-15T04:53:09;89.07;;;83.03;;
11098;SDS011;12223;42.650;23.364;2023-02-15T04:55:38;44.73;;;40.47;;
11098;SDS011;12223;42.650;23.364;2023-02-15T04:58:04;83.50;;;77.63;;
11098;SDS011;12223;42.650;23.364;2023-02-15T05:00:31;47.77;;;43.50;;
11098;SDS011;12223;42.650;23.364;2023-02-15T05:02:58;52.93;;;48.37;;
11098;SDS011;12223;42.650;23.364;2023-02-15T05:05:25;42.40;;;38.33;;
11098;SDS011;12223;42.650;23.364;2023-02-15T05:07:52;38.13;;;34.40;;
11098;SDS011;12223;42.650;23.364;2023-02-15T05:10:19;33.53;;;29.90;;
11098;SDS011;12223;42.650;23.364;2023-02-15T05:12:47;33.07;;;29.17;;
11098;SDS011;12223;42.650;23.364;2023-02-15T05:15:14;32.33;;;28.90;;
11098;SDS011;12223;42.650;23.364;2023-02-15T05:17:40;69.07;;;63.70;;
11098;SDS011;12223;42.650;23.364;2023-02-15T05:20:07;71.87;;;66.27;;
11098;SDS011;12223;42.650;23.364;2023-02-15T05:22:35;54.87;;;50.23;;
11098;SDS011;12223;42.650;23.364;2023-02-15T05:25:01;58.77;;;53.80;;
11098;SDS011;12223;42.650;23.364;2023-02-15T05:27:47;56.00;;;51.67;;
11098;SDS011;12223;42.650;23.364;2023-02-15T05:30:31;53.97;;;49.97;;
11098;SDS011;12223;42.650;23.364;2023-02-15T05:32:58;36.17;;;32.57;;
11098;SDS011;12223;42.650;23.364;2023-02-15T05:35:25;46.53;;;42.10;;
11098;SDS011;12223;42.650;23.364;2023-02-15T05:37:52;75.37;;;69.63;;
11098;SDS011;12223;42.650;23.364;2023-02-15T05:40:18;36.07;;;32.17;;
11098;SDS011;12223;42.650;23.364;2023-02-15T05:42:47;33.20;;;27.03;;
11098;SDS011;12223;42.650;23.364;2023-02-15T05:45:13;33.90;;;29.83;;
11098;SDS011;12223;42.650;23.364;2023-02-15T05:47:40;72.97;;;67.77;;
11098;SDS011;12223;42.650;23.364;2023-02-15T05:50:07;32.80;;;29.40;;
11098;SDS011;12223;42.650;23.364;2023-02-15T05:52:35;32.53;;;25.87;;
11098;SDS011;12223;42.650;23.364;2023-02-15T05:55:02;29.90;;;26.70;;
11098;SDS011;12223;42.650;23.364;2023-02-15T05:57:29;35.23;;;31.57;;
11098;SDS011;12223;42.650;23.364;2023-02-15T05:59:57;33.87;;;30.33;;
11098;SDS011;12223;42.650;23.364;2023-02-15T06:02:24;37.33;;;33.60;;
11098;SDS011;12223;42.650;23.364;2023-02-15T06:04:51;31.23;;;25.93;;
11098;SDS011;12223;42.650;23.364;2023-02-15T06:07:18;32.43;;;22.80;;
11098;SDS011;12223;42.650;23.364;2023-02-15T06:09:44;33.00;;;25.53;;
11098;SDS011;12223;42.650;23.364;2023-02-15T06:12:11;46.17;;;42.13;;
11098;SDS011;12223;42.650;23.364;2023-02-15T06:14:38;43.53;;;39.73;;
11098;SDS011;12223;42.650;23.364;2023-02-15T06:17:06;33.93;;;30.33;;
11098;SDS011;12223;42.650;23.364;2023-02-15T06:19:32;29.03;;;21.80;;
11098;SDS011;12223;42.650;23.364;2023-02-15T06:21:59;37.33;;;33.80;;
11098;SDS011;12223;42.650;23.364;2023-02-15T06:24:26;33.90;;;28.33;;
11098;SDS011;12223;42.650;23.364;2023-02-15T06:26:53;40.57;;;36.67;;
11098;SDS011;12223;42.650;23.364;2023-02-15T06:29:20;30.43;;;24.67;;
11098;SDS011;12223;42.650;23.364;2023-02-15T06:31:46;30.97;;;22.57;;
11098;SDS011;12223;42.650;23.364;2023-02-15T06:34:14;27.50;;;21.33;;
11098;SDS011;12223;42.650;23.364;2023-02-15T06:36:41;28.00;;;20.33;;
11098;SDS011;12223;42.650;23.364;2023-02-15T06:39:08;26.30;;;21.83;;
11098;SDS011;12223;42.650;23.364;2023-02-15T06:41:35;30.90;;;27.60;;
11098;SDS011;12223;42.650;23.364;2023-02-15T06:44:02;26.23;;;20.97;;
11098;SDS011;12223;42.650;23.364;2023-02-15T06:46:28;26.63;;;22.80;;
11098;SDS011;12223;42.650;23.364;2023-02-15T06:48:55;27.73;;;22.63;;
11098;SDS011;12223;42.650;23.364;2023-02-15T06:51:23;28.57;;;23.63;;
11098;SDS011;12223;42.650;23.364;2023-02-15T06:53:50;28.43;;;21.67;;
11098;SDS011;12223;42.650;23.364;2023-02-15T06:56:17;25.50;;;21.27;;
11098;SDS011;12223;42.650;23.364;2023-02-15T06:58:44;26.57;;;23.67;;
11098;SDS011;12223;42.650;23.364;2023-02-15T07:01:11;25.30;;;22.47;;
11098;SDS011;12223;42.650;23.364;2023-02-15T07:03:38;22.97;;;18.90;;
11098;SDS011;12223;42.650;23.364;2023-02-15T07:06:05;24.27;;;19.87;;
11098;SDS011;12223;42.650;23.364;2023-02-15T07:08:35;23.30;;;19.83;;
11098;SDS011;12223;42.650;23.364;2023-02-15T07:11:02;23.20;;;19.53;;
11098;SDS011;12223;42.650;23.364;2023-02-15T07:13:43;22.40;;;19.57;;
11098;SDS011;12223;42.650;23.364;2023-02-15T07:16:09;31.17;;;28.33;;
11098;SDS011;12223;42.650;23.364;2023-02-15T07:18:37;22.17;;;19.77;;
11098;SDS011;12223;42.650;23.364;2023-02-15T07:21:04;18.67;;;16.70;;
11098;SDS011;12223;42.650;23.364;2023-02-15T07:23:35;18.87;;;16.90;;
11098;SDS011;12223;42.650;23.364;2023-02-15T07:26:02;25.87;;;23.67;;
11098;SDS011;12223;42.650;23.364;2023-02-15T07:28:30;21.13;;;18.17;;
11098;SDS011;12223;42.650;23.364;2023-02-15T07:30:57;31.13;;;28.33;;
11098;SDS011;12223;42.650;23.364;2023-02-15T07:33:23;25.40;;;23.00;;
11098;SDS011;12223;42.650;23.364;2023-02-15T07:35:52;22.60;;;20.07;;
11098;SDS011;12223;42.650;23.364;2023-02-15T07:38:20;24.00;;;18.10;;
11098;SDS011;12223;42.650;23.364;2023-02-15T07:40:48;19.77;;;15.00;;
11098;SDS011;12223;42.650;23.364;2023-02-15T07:43:16;34.33;;;31.43;;
11098;SDS011;12223;42.650;23.364;2023-02-15T07:45:42;19.70;;;17.60;;
11098;SDS011;12223;42.650;23.364;2023-02-15T07:48:09;18.73;;;16.53;;
11098;SDS011;12223;42.650;23.364;2023-02-15T07:50:36;22.90;;;20.43;;
11098;SDS011;12223;42.650;23.364;2023-02-15T07:53:03;20.40;;;18.30;;
11098;SDS011;12223;42.650;23.364;2023-02-15T07:55:30;22.83;;;20.53;;
11098;SDS011;12223;42.650;23.364;2023-02-15T07:57:58;24.33;;;21.93;;
11098;SDS011;12223;42.650;23.364;2023-02-15T08:00:25;23.27;;;20.60;;
11098;SDS011;12223;42.650;23.364;2023-02-15T08:02:55;18.67;;;16.53;;
11098;SDS011;12223;42.650;23.364;2023-02-15T08:05:40;21.77;;;16.40;;
11098;SDS011;12223;42.650;23.364;2023-02-15T08:08:08;19.10;;;16.80;;
11098;SDS011;12223;42.650;23.364;2023-02-15T08:10:57;21.73;;;19.50;;
11098;SDS011;12223;42.650;23.364;2023-02-15T08:13:43;23.63;;;21.13;;
11098;SDS011;12223;42.650;23.364;2023-02-15T08:16:19;21.53;;;18.50;;
11098;SDS011;12223;42.650;23.364;2023-02-15T08:18:47;21.10;;;17.20;;
11098;SDS011;12223;42.650;23.364;2023-02-15T08:21:14;28.17;;;19.30;;
11098;SDS011;12223;42.650;23.364;2023-02-15T08:23:41;23.77;;;19.40;;
11098;SDS011;12223;42.650;23.364;2023-02-15T08:26:08;25.47;;;20.57;;
11098;SDS011;12223;42.650;23.364;2023-02-15T08:28:35;22.23;;;19.50;;
11098;SDS011;12223;42.650;23.364;2023-02-15T08:31:06;23.00;;;19.00;;
11098;SDS011;12223;42.650;23.364;2023-02-15T08:33:34;29.63;;;26.93;;
11098;SDS011;12223;42.650;23.364;2023-02-15T08:36:02;25.53;;;23.20;;
11098;SDS011;12223;42.650;23.364;2023-02-15T08:38:30;19.50;;;16.27;;
11098;SDS011;12223;42.650;23.364;2023-02-15T08:40:57;31.17;;;21.70;;
11098;SDS011;12223;42.650;23.364;2023-02-15T08:43:24;21.07;;;18.83;;
11098;SDS011;12223;42.650;23.364;2023-02-15T08:45:50;23.30;;;18.17;;
11098;SDS011;12223;42.650;23.364;2023-02-15T08:48:19;21.53;;;18.27;;
11098;SDS011;12223;42.650;23.364;2023-02-15T08:50:46;24.33;;;21.83;;
11098;SDS011;12223;42.650;23.364;2023-02-15T08:53:12;23.30;;;20.80;;
11098;SDS011;12223;42.650;23.364;2023-02-15T08:55:39;22.90;;;20.30;;
11098;SDS011;12223;42.650;23.364;2023-02-15T08:58:06;23.77;;;20.73;;
11098;SDS011;12223;42.650;23.364;2023-02-15T09:00:32;22.87;;;20.47;;
11098;SDS011;12223;42.650;23.364;2023-02-15T09:02:59;22.63;;;17.87;;
11098;SDS011;12223;42.650;23.364;2023-02-15T09:05:27;22.20;;;19.20;;
11098;SDS011;12223;42.650;23.364;2023-02-15T09:07:54;23.43;;;21.00;;
11098;SDS011;12223;42.650;23.364;2023-02-15T09:10:21;22.50;;;18.53;;
11098;SDS011;12223;42.650;23.364;2023-02-15T09:12:48;26.63;;;20.07;;
11098;SDS011;12223;42.650;23.364;2023-02-15T09:15:16;25.63;;;16.77;;
11098;SDS011;12223;42.650;23.364;2023-02-15T09:17:42;23.13;;;17.17;;
11098;SDS011;12223;42.650;23.364;2023-02-15T09:20:09;20.87;;;18.03;;
11098;SDS011;12223;42.650;23.364;2023-02-15T09:22:38;21.63;;;19.23;;
11098;SDS011;12223;42.650;23.364;2023-02-15T09:25:05;25.23;;;22.53;;
11098;SDS011;12223;42.650;23.364;2023-02-15T09:27:32;24.83;;;19.63;;
11098;SDS011;12223;42.650;23.364;2023-02-15T09:29:59;25.13;;;18.57;;
11098;SDS011;12223;42.650;23.364;2023-02-15T09:32:26;23.80;;;18.20;;
11098;SDS011;12223;42.650;23.364;2023-02-15T09:34:52;21.47;;;16.87;;
11098;SDS011;12223;42.650;23.364;2023-02-15T09:37:19;20.83;;;18.20;;
11098;SDS011;12223;42.650;23.364;2023-02-15T09:39:47;21.40;;;16.87;;
11098;SDS011;12223;42.650;23.364;2023-02-15T09:45:13;19.57;;;17.63;;
11098;SDS011;12223;42.650;23.364;2023-02-15T09:50:44;21.23;;;18.93;;
11098;SDS011;12223;42.650;23.364;2023-02-15T09:53:26;18.97;;;16.80;;
11098;SDS011;12223;42.650;23.364;2023-02-15T09:56:12;21.83;;;17.60;;
11098;SDS011;12223;42.650;23.364;2023-02-15T09:58:46;22.67;;;20.47;;
11098;SDS011;12223;42.650;23.364;2023-02-15T10:01:21;17.70;;;15.80;;
11098;SDS011;12223;42.650;23.364;2023-02-15T10:03:58;21.87;;;18.53;;
11098;SDS011;12223;42.650;23.364;2023-02-15T10:06:47;26.90;;;19.13;;
11098;SDS011;12223;42.650;23.364;2023-02-15T10:12:31;25.70;;;23.00;;
11098;SDS011;12223;42.650;23.364;2023-02-15T10:15:16;22.80;;;17.33;;
11098;SDS011;12223;42.650;23.364;2023-02-15T10:20:51;22.67;;;20.33;;
11098;SDS011;12223;42.650;23.364;2023-02-15T10:23:32;23.03;;;20.60;;
11098;SDS011;12223;42.650;23.364;2023-02-15T10:26:15;24.07;;;21.50;;
11098;SDS011;12223;42.650;23.364;2023-02-15T10:28:46;23.60;;;20.03;;
11098;SDS011;12223;42.650;23.364;2023-02-15T10:31:18;21.33;;;19.10;;
11098;SDS011;12223;42.650;23.364;2023-02-15T10:33:52;22.03;;;19.70;;
11098;SDS011;12223;42.650;23.364;2023-02-15T10:36:37;23.00;;;18.73;;
11098;SDS011;12223;42.650;23.364;2023-02-15T10:39:30;20.90;;;17.07;;
11098;SDS011;12223;42.650;23.364;2023-02-15T10:42:07;20.17;;;16.63;;
11098;SDS011;12223;42.650;23.364;2023-02-15T10:44:44;23.57;;;16.83;;
11098;SDS011;12223;42.650;23.364;2023-02-15T10:47:34;20.30;;;18.00;;
11098;SDS011;12223;42.650;23.364;2023-02-15T10:50:17;21.77;;;19.23;;
11098;SDS011;12223;42.650;23.364;2023-02-15T10:52:57;41.63;;;38.20;;
11098;SDS011;12223;42.650;23.364;2023-02-15T10:55:39;34.30;;;31.00;;
11098;SDS011;12223;42.650;23.364;2023-02-15T10:58:16;24.70;;;22.10;;
11098;SDS011;12223;42.650;23.364;2023-02-15T11:00:52;23.20;;;19.70;;
11098;SDS011;12223;42.650;23.364;2023-02-15T11:03:33;25.13;;;22.53;;
11098;SDS011;12223;42.650;23.364;2023-02-15T11:06:09;27.27;;;21.80;;
11098;SDS011;12223;42.650;23.364;2023-02-15T11:08:40;21.50;;;18.70;;
11098;SDS011;12223;42.650;23.364;2023-02-15T11:11:12;25.03;;;20.13;;
11098;SDS011;12223;42.650;23.364;2023-02-15T11:13:51;23.77;;;21.27;;
11098;SDS011;12223;42.650;23.364;2023-02-15T11:16:22;21.40;;;17.57;;
11098;SDS011;12223;42.650;23.364;2023-02-15T11:18:54;20.50;;;17.97;;
11098;SDS011;12223;42.650;23.364;2023-02-15T11:21:26;21.60;;;17.40;;
11098;SDS011;12223;42.650;23.364;2023-02-15T11:23:57;25.60;;;20.40;;
11098;SDS011;12223;42.650;23.364;2023-02-15T11:26:27;25.40;;;21.07;;
11098;SDS011;12223;42.650;23.364;2023-02-15T11:28:59;24.50;;;19.00;;
11098;SDS011;12223;42.650;23.364;2023-02-15T11:31:37;23.43;;;19.03;;
11098;SDS011;12223;42.650;23.364;2023-02-15T11:34:12;26.87;;;20.77;;
11098;SDS011;12223;42.650;23.364;2023-02-15T11:36:45;24.77;;;20.90;;
11098;SDS011;12223;42.650;23.364;2023-02-15T11:39:15;28.97;;;23.10;;
11098;SDS011;12223;42.650;23.364;2023-02-15T11:41:46;26.00;;;21.00;;
11098;SDS011;12223;42.650;23.364;2023-02-15T11:44:18;23.93;;;20.17;;
11098;SDS011;12223;42.650;23.364;2023-02-15T11:46:50;24.60;;;20.43;;
11098;SDS011;12223;42.650;23.364;2023-02-15T11:49:21;25.33;;;22.50;;
11098;SDS011;12223;42.650;23.364;2023-02-15T11:51:49;27.30;;;23.53;;
11098;SDS011;12223;42.650;23.364;2023-02-15T11:54:26;26.93;;;22.77;;
11098;SDS011;12223;42.650;23.364;2023-02-15T11:56:56;27.03;;;23.30;;
11098;SDS011;12223;42.650;23.364;2023-02-15T11:59:31;28.97;;;24.60;;
11098;SDS011;12223;42.650;23.364;2023-02-15T12:02:07;28.73;;;25.00;;
11098;SDS011;12223;42.650;23.364;2023-02-15T12:04:43;29.57;;;23.80;;
11098;SDS011;12223;42.650;23.364;2023-02-15T12:07:17;25.80;;;21.97;;
11098;SDS011;12223;42.650;23.364;2023-02-15T12:09:51;25.03;;;19.80;;
11098;SDS011;12223;42.650;23.364;2023-02-15T12:12:26;23.00;;;19.53;;
11098;SDS011;12223;42.650;23.364;2023-02-15T12:14:54;27.23;;;21.67;;
11098;SDS011;12223;42.650;23.364;2023-02-15T12:17:25;31.53;;;22.43;;
11098;SDS011;12223;42.650;23.364;2023-02-15T12:19:55;31.27;;;25.47;;
11098;SDS011;12223;42.650;23.364;2023-02-15T12:22:24;30.07;;;24.87;;
11098;SDS011;12223;42.650;23.364;2023-02-15T12:24:53;25.27;;;21.40;;
11098;SDS011;12223;42.650;23.364;2023-02-15T12:27:23;26.63;;;22.57;;
11098;SDS011;12223;42.650;23.364;2023-02-15T12:29:52;30.00;;;21.20;;
11098;SDS011;12223;42.650;23.364;2023-02-15T12:32:23;27.93;;;21.37;;
11098;SDS011;12223;42.650;23.364;2023-02-15T12:34:55;26.87;;;23.93;;
11098;SDS011;12223;42.650;23.364;2023-02-15T12:37:27;29.83;;;23.10;;
11098;SDS011;12223;42.650;23.364;2023-02-15T12:39:59;26.20;;;20.50;;
11098;SDS011;12223;42.650;23.364;2023-02-15T12:42:28;26.97;;;23.87;;
11098;SDS011;12223;42.650;23.364;2023-02-15T12:45:19;27.10;;;22.80;;
11098;SDS011;12223;42.650;23.364;2023-02-15T12:47:51;29.63;;;23.47;;
11098;SDS011;12223;42.650;23.364;2023-02-15T12:50:39;25.83;;;21.83;;
11098;SDS011;12223;42.650;23.364;2023-02-15T12:53:08;31.70;;;22.43;;
11098;SDS011;12223;42.650;23.364;2023-02-15T12:55:49;27.83;;;21.67;;
11098;SDS011;12223;42.650;23.364;2023-02-15T12:58:18;26.63;;;21.47;;
11098;SDS011;12223;42.650;23.364;2023-02-15T13:00:46;28.73;;;21.40;;
11098;SDS011;12223;42.650;23.364;2023-02-15T13:03:18;26.00;;;23.20;;
11098;SDS011;12223;42.650;23.364;2023-02-15T13:05:48;27.97;;;24.20;;
11098;SDS011;12223;42.650;23.364;2023-02-15T13:08:18;26.83;;;23.23;;
11098;SDS011;12223;42.650;23.364;2023-02-15T13:10:52;25.63;;;22.93;;
11098;SDS011;12223;42.650;23.364;2023-02-15T13:13:22;28.87;;;21.20;;
11098;SDS011;12223;42.650;23.364;2023-02-15T13:15:53;28.43;;;23.83;;
11098;SDS011;12223;42.650;23.364;2023-02-15T13:18:28;25.47;;;21.53;;
11098;SDS011;12223;42.650;23.364;2023-02-15T13:20:59;25.10;;;21.83;;
11098;SDS011;12223;42.650;23.364;2023-02-15T13:23:35;24.37;;;21.27;;
11098;SDS011;12223;42.650;23.364;2023-02-15T13:26:05;26.97;;;21.90;;
11098;SDS011;12223;42.650;23.364;2023-02-15T13:28:39;26.53;;;23.70;;
11098;SDS011;12223;42.650;23.364;2023-02-15T13:31:11;26.70;;;21.97;;
11098;SDS011;12223;42.650;23.364;2023-02-15T13:33:42;24.40;;;20.03;;
11098;SDS011;12223;42.650;23.364;2023-02-15T13:36:13;25.87;;;20.33;;
11098;SDS011;12223;42.650;23.364;2023-02-15T13:38:49;29.70;;;23.27;;
11098;SDS011;12223;42.650;23.364;2023-02-15T13:41:27;24.57;;;21.30;;
11098;SDS011;12223;42.650;23.364;2023-02-15T13:44:01;28.03;;;25.03;;
11098;SDS011;12223;42.650;23.364;2023-02-15T13:46:41;29.67;;;22.13;;
11098;SDS011;12223;42.650;23.364;2023-02-15T13:49:21;30.10;;;23.77;;
11098;SDS011;12223;42.650;23.364;2023-02-15T13:52:03;28.00;;;25.03;;
11098;SDS011;12223;42.650;23.364;2023-02-15T13:54:44;25.23;;;20.30;;
11098;SDS011;12223;42.650;23.364;2023-02-15T14:00:20;24.33;;;20.70;;
11098;SDS011;12223;42.650;23.364;2023-02-15T14:03:03;24.33;;;19.73;;
11098;SDS011;12223;42.650;23.364;2023-02-15T14:05:51;31.90;;;24.00;;
11098;SDS011;12223;42.650;23.364;2023-02-15T14:08:34;24.80;;;20.37;;
11098;SDS011;12223;42.650;23.364;2023-02-15T14:11:12;25.87;;;20.97;;
11098;SDS011;12223;42.650;23.364;2023-02-15T14:14:01;25.10;;;20.47;;
11098;SDS011;12223;42.650;23.364;2023-02-15T14:16:57;28.30;;;21.17;;
11098;SDS011;12223;42.650;23.364;2023-02-15T14:19:31;31.37;;;21.23;;
11098;SDS011;12223;42.650;23.364;2023-02-15T14:22:09;29.33;;;21.10;;
11098;SDS011;12223;42.650;23.364;2023-02-15T14:24:46;26.00;;;22.50;;
11098;SDS011;12223;42.650;23.364;2023-02-15T14:27:26;28.97;;;22.33;;
11098;SDS011;12223;42.650;23.364;2023-02-15T14:30:10;27.23;;;23.07;;
11098;SDS011;12223;42.650;23.364;2023-02-15T14:32:41;29.63;;;23.27;;
11098;SDS011;12223;42.650;23.364;2023-02-15T14:35:13;28.90;;;22.97;;
11098;SDS011;12223;42.650;23.364;2023-02-15T14:37:43;30.17;;;26.87;;
11098;SDS011;12223;42.650;23.364;2023-02-15T14:40:17;28.93;;;24.37;;
11098;SDS011;12223;42.650;23.364;2023-02-15T14:43:11;27.23;;;23.30;;
11098;SDS011;12223;42.650;23.364;2023-02-15T14:45:48;29.10;;;25.90;;
11098;SDS011;12223;42.650;23.364;2023-02-15T14:48:17;27.87;;;23.60;;
11098;SDS011;12223;42.650;23.364;2023-02-15T14:50:48;29.97;;;25.03;;
11098;SDS011;12223;42.650;23.364;2023-02-15T14:53:17;27.13;;;24.10;;
11098;SDS011;12223;42.650;23.364;2023-02-15T14:56:14;30.13;;;23.17;;
11098;SDS011;12223;42.650;23.364;2023-02-15T15:01:50;30.07;;;26.83;;
11098;SDS011;12223;42.650;23.364;2023-02-15T15:04:23;35.90;;;24.93;;